Port Hadlock, Washington
Current Conditions -  °F | °C
As of 5:33 PM on Thursday 27 Nov 2014 (Local Time) from KNUW Reporting Station
Broken Clouds Broken Clouds  
Wind Chill: 58°   Ceiling: 1500
Heat Index: 58°   Visibility: 10mi
Dew Point: 51°   Wind: 17mph
Humidity: 78%   Direction: 170°S
Pressure: 29.67"   Gusts: NA
Location:  48.03°N, 122.76°W
Report Text: KNUW 280133Z AUTO 17015KT 10SM BKN015 BKN070 14/11 A2967 RMK AO2 T01440106 $
Loading
Personal Weather Stations






























Interactive Weather Map New forecast layout! Learn more

10-Day Weather Forecast

Advertisements
Track Severe Weather on mobile